Time,TemperatureF,DewpointF,PressureIn,WindDirection,WindDirectionDegrees,WindSpeedMPH,WindSpeedGustMPH,Humidity,HourlyPrecipIn,Conditions,Clouds,dailyrainin,SoftwareType,DateUTC
2013-03-26 00:00:00,34.0,20.4,30.03,West,270,0.0,0.0,57,0.00,,-RA,0.00,VWS V14.01,2013-03-26 04:00:00,
2013-03-26 00:05:00,33.8,20.2,30.03,WNW,292,2.5,2.5,57,0.00,,-RA,0.00,VWS V14.01,2013-03-26 04:05:00,
2013-03-26 00:10:00,33.8,20.6,30.03,North,0,2.9,2.9,58,0.00,,-RA,0.00,VWS V14.01,2013-03-26 04:10:00,
2013-03-26 00:15:00,33.8,20.6,30.03,North,0,4.0,4.0,58,0.00,,-RA,0.00,VWS V14.01,2013-03-26 04:15:00,
2013-03-26 00:20:00,33.8,20.2,30.03,WNW,292,1.1,1.1,57,0.00,,-RA,0.00,VWS V14.01,2013-03-26 04:20:00,
2013-03-26 00:25:00,33.8,20.6,30.03,NNW,338,2.9,2.9,58,0.00,,-RA,0.00,VWS V14.01,2013-03-26 04:25:00,
2013-03-26 00:30:00,33.8,20.6,30.03,NNE,22,1.3,1.3,58,0.00,,-RA,0.00,VWS V14.01,2013-03-26 04:30:00,
2013-03-26 00:35:00,33.6,20.4,30.03,WSW,248,0.0,0.0,58,0.00,,-RA,0.00,VWS V14.01,2013-03-26 04:35:00,
2013-03-26 00:40:00,33.6,20.8,30.03,NNW,338,2.7,2.7,59,0.00,,-RA,0.00,VWS V14.01,2013-03-26 04:40:00,
2013-03-26 00:45:00,33.6,20.8,30.03,WNW,292,2.7,2.7,59,0.00,,-RA,0.00,VWS V14.01,2013-03-26 04:45:00,
2013-03-26 00:50:00,33.6,20.8,30.00,North,0,5.4,5.4,59,0.00,,-RA,0.00,VWS V14.01,2013-03-26 04:50:00,
2013-03-26 00:55:00,33.6,21.2,30.00,WNW,292,3.1,3.1,60,0.00,,-RA,0.00,VWS V14.01,2013-03-26 04:55:00,
2013-03-26 01:00:00,33.6,20.8,30.00,NNW,338,3.4,3.4,59,0.00,,-RA,0.00,VWS V14.01,2013-03-26 05:00:00,
2013-03-26 01:05:00,33.6,20.8,30.03,NW,315,3.1,3.1,59,0.00,,-RA,0.00,VWS V14.01,2013-03-26 05:05:00,
2013-03-26 01:10:00,33.4,21.1,30.03,WNW,292,0.0,0.0,60,0.00,,-RA,0.00,VWS V14.01,2013-03-26 05:10:00,
2013-03-26 01:15:00,33.4,21.1,30.03,WNW,292,3.6,3.6,60,0.00,,-RA,0.00,VWS V14.01,2013-03-26 05:15:00,
2013-03-26 01:20:00,33.4,21.5,30.03,NNE,22,2.0,2.0,61,0.00,,-RA,0.00,VWS V14.01,2013-03-26 05:20:00,
2013-03-26 01:25:00,33.4,21.1,30.03,NNW,338,1.6,1.6,60,0.00,,-RA,0.00,VWS V14.01,2013-03-26 05:25:00,
2013-03-26 01:30:00,33.4,21.5,30.03,NNW,338,1.3,1.3,61,0.00,,-RA,0.00,VWS V14.01,2013-03-26 05:30:00,
2013-03-26 01:35:00,33.3,21.7,30.03,NW,315,4.7,4.7,62,0.00,,-RA,0.00,VWS V14.01,2013-03-26 05:35:00,
2013-03-26 01:39:00,33.3,21.3,30.03,NNW,338,1.6,1.6,61,0.00,,-RA,0.00,VWS V14.01,2013-03-26 05:39:00,
2013-03-26 01:44:00,33.3,21.3,30.03,NNW,338,0.9,0.9,61,0.00,,-RA,0.00,VWS V14.01,2013-03-26 05:44:00,
2013-03-26 01:49:00,33.3,21.7,30.03,NW,315,2.5,2.5,62,0.00,,-RA,0.00,VWS V14.01,2013-03-26 05:49:00,
2013-03-26 01:54:00,33.3,21.7,30.03,NW,315,2.5,2.5,62,0.00,,-RA,0.00,VWS V14.01,2013-03-26 05:54:00,
2013-03-26 02:00:00,33.3,21.7,30.03,WNW,292,0.0,0.0,62,0.00,,-RA,0.00,VWS V14.01,2013-03-26 06:00:00,
2013-03-26 02:04:00,33.3,21.7,30.03,NNE,22,3.6,3.6,62,0.00,,-RA,0.00,VWS V14.01,2013-03-26 06:04:00,
2013-03-26 02:10:00,33.3,22.0,30.03,WNW,292,0.9,0.9,63,0.00,,-RA,0.00,VWS V14.01,2013-03-26 06:10:00,
2013-03-26 02:15:00,33.3,22.0,30.03,NNW,338,0.0,0.0,63,0.00,,-RA,0.00,VWS V14.01,2013-03-26 06:15:00,
2013-03-26 02:20:00,33.3,22.0,30.03,North,0,1.6,1.6,63,0.00,,-RA,0.00,VWS V14.01,2013-03-26 06:20:00,
2013-03-26 02:25:00,33.3,22.0,30.03,NE,45,1.3,1.3,63,0.00,,-RA,0.00,VWS V14.01,2013-03-26 06:25:00,
2013-03-26 02:29:00,33.3,22.0,30.03,NW,315,0.0,0.0,63,0.00,,-RA,0.00,VWS V14.01,2013-03-26 06:29:00,
2013-03-26 02:35:00,33.3,22.0,30.03,WNW,292,2.5,2.5,63,0.00,,-RA,0.00,VWS V14.01,2013-03-26 06:35:00,
2013-03-26 02:39:00,33.3,22.4,30.03,North,0,4.3,4.3,64,0.00,,-RA,0.00,VWS V14.01,2013-03-26 06:39:00,
2013-03-26 02:45:00,33.3,22.4,30.03,WNW,292,3.8,3.8,64,0.00,,-RA,0.00,VWS V14.01,2013-03-26 06:45:00,
2013-03-26 02:49:00,33.1,22.6,30.06,WNW,292,0.9,0.9,65,0.00,,-RA,0.00,VWS V14.01,2013-03-26 06:49:00,
2013-03-26 02:54:00,33.1,22.2,30.06,ENE,68,3.8,3.8,64,0.00,,-RA,0.00,VWS V14.01,2013-03-26 06:54:00,
2013-03-26 02:59:00,33.1,23.0,30.06,WNW,292,3.1,3.1,66,0.00,,-RA,0.00,VWS V14.01,2013-03-26 06:59:00,
2013-03-26 03:04:00,33.1,22.6,30.03,NNW,338,2.9,2.9,65,0.00,,-RA,0.00,VWS V14.01,2013-03-26 07:04:00,
2013-03-26 03:10:00,33.1,23.0,30.03,WNW,292,3.8,3.8,66,0.00,,-RA,0.00,VWS V14.01,2013-03-26 07:10:00,
2013-03-26 03:14:00,33.1,23.0,30.03,NNE,22,3.1,3.1,66,0.00,,-RA,0.00,VWS V14.01,2013-03-26 07:14:00,
2013-03-26 03:19:00,32.9,22.8,30.03,North,0,0.9,0.9,66,0.00,,-RA,0.00,VWS V14.01,2013-03-26 07:19:00,
2013-03-26 03:24:00,32.9,23.2,30.03,North,0,5.8,5.8,67,0.00,,-RA,0.00,VWS V14.01,2013-03-26 07:24:00,
2013-03-26 03:29:00,32.9,23.2,30.03,NNW,338,3.6,3.6,67,0.00,,-RA,0.00,VWS V14.01,2013-03-26 07:29:00,
2013-03-26 03:35:00,32.7,23.0,30.03,WNW,292,4.0,4.0,67,0.00,,-RA,0.00,VWS V14.01,2013-03-26 07:35:00,
2013-03-26 03:39:00,32.7,23.0,30.03,NE,45,1.6,1.6,67,0.00,,-RA,0.00,VWS V14.01,2013-03-26 07:39:00,
2013-03-26 03:44:00,32.7,23.0,30.03,WNW,292,2.0,2.0,67,0.00,,-RA,0.00,VWS V14.01,2013-03-26 07:44:00,
2013-03-26 03:49:00,32.7,23.3,30.03,WNW,292,1.3,1.3,68,0.00,,-RA,0.00,VWS V14.01,2013-03-26 07:49:00,
2013-03-26 03:54:00,32.5,23.2,30.03,North,0,2.5,2.5,68,0.00,,-RA,0.00,VWS V14.01,2013-03-26 07:54:00,
2013-03-26 03:59:00,32.4,23.3,30.03,WNW,292,3.6,3.6,69,0.00,,-RA,0.00,VWS V14.01,2013-03-26 07:59:00,
2013-03-26 04:04:00,32.2,22.8,30.03,WNW,292,2.5,2.5,68,0.00,,-RA,0.00,VWS V14.01,2013-03-26 08:04:00,
2013-03-26 04:09:00,32.2,22.8,30.03,WNW,292,0.0,0.0,68,0.00,,-RA,0.00,VWS V14.01,2013-03-26 08:09:00,
2013-03-26 04:14:00,31.6,22.3,30.03,NW,315,2.5,2.5,68,0.00,,-RA,0.00,VWS V14.01,2013-03-26 08:14:00,
2013-03-26 04:19:00,31.6,22.3,30.03,NNW,338,0.0,0.0,68,0.00,,-RA,0.00,VWS V14.01,2013-03-26 08:19:00,
2013-03-26 04:24:00,31.6,22.3,30.03,NW,315,2.2,2.2,68,0.00,,-RA,0.00,VWS V14.01,2013-03-26 08:24:00,
2013-03-26 04:29:00,31.3,22.3,30.03,NNW,338,0.9,0.9,69,0.00,,-RA,0.00,VWS V14.01,2013-03-26 08:29:00,
2013-03-26 04:34:00,31.1,22.1,30.03,WNW,292,2.9,2.9,69,0.00,,-RA,0.00,VWS V14.01,2013-03-26 08:34:00,
2013-03-26 04:39:00,30.9,22.3,30.03,NNW,338,1.3,1.3,70,0.00,,-RA,0.00,VWS V14.01,2013-03-26 08:39:00,
2013-03-26 04:44:00,30.7,22.1,30.03,NW,315,3.6,3.6,70,0.00,,-RA,0.00,VWS V14.01,2013-03-26 08:44:00,
2013-03-26 04:49:00,30.6,22.0,30.03,WNW,292,1.6,1.6,70,0.00,,-RA,0.00,VWS V14.01,2013-03-26 08:49:00,
2013-03-26 04:54:00,30.6,22.3,30.03,WNW,292,0.0,0.0,71,0.00,,-RA,0.00,VWS V14.01,2013-03-26 08:54:00,
2013-03-26 04:59:00,30.4,22.1,30.03,NNW,338,2.7,2.7,71,0.00,,-RA,0.00,VWS V14.01,2013-03-26 08:59:00,
2013-03-26 05:04:00,30.2,22.3,30.06,NW,315,1.6,1.6,72,0.00,,-RA,0.00,VWS V14.01,2013-03-26 09:04:00,
2013-03-26 05:09:00,30.2,22.3,30.06,NNW,338,1.6,1.6,72,0.00,,-RA,0.00,VWS V14.01,2013-03-26 09:09:00,
2013-03-26 05:14:00,30.2,22.3,30.06,WNW,292,1.6,1.6,72,0.00,,-RA,0.00,VWS V14.01,2013-03-26 09:14:00,
2013-03-26 05:19:00,30.0,22.1,30.03,NNW,338,2.7,2.7,72,0.00,,-RA,0.00,VWS V14.01,2013-03-26 09:19:00,
2013-03-26 05:24:00,30.0,22.4,30.03,WNW,292,3.4,3.4,73,0.00,,-RA,0.00,VWS V14.01,2013-03-26 09:24:00,
2013-03-26 05:29:00,30.0,22.8,30.03,WNW,292,2.9,2.9,74,0.00,,-RA,0.00,VWS V14.01,2013-03-26 09:29:00,
2013-03-26 05:34:00,30.0,22.8,30.06,WNW,292,3.1,3.1,74,0.00,,-RA,0.00,VWS V14.01,2013-03-26 09:34:00,
2013-03-26 05:39:00,29.8,22.6,30.06,WNW,292,2.9,2.9,74,0.00,,-RA,0.00,VWS V14.01,2013-03-26 09:39:00,
2013-03-26 05:44:00,30.0,22.8,30.06,WNW,292,2.2,2.2,74,0.00,,-RA,0.00,VWS V14.01,2013-03-26 09:44:00,
2013-03-26 05:49:00,30.2,23.6,30.06,WNW,292,3.6,3.6,76,0.00,,-RA,0.00,VWS V14.01,2013-03-26 09:49:00,
2013-03-26 05:54:00,30.2,23.6,30.06,NW,315,2.9,2.9,76,0.00,,-RA,0.00,VWS V14.01,2013-03-26 09:54:00,
2013-03-26 05:59:00,30.2,23.2,30.06,NNW,338,3.8,3.8,75,0.00,,-RA,0.00,VWS V14.01,2013-03-26 09:59:00,
2013-03-26 06:04:00,30.4,23.7,30.06,NNW,338,5.4,5.4,76,0.00,,-RA,0.00,VWS V14.01,2013-03-26 10:04:00,
2013-03-26 06:09:00,30.4,23.7,30.06,WNW,292,2.7,2.7,76,0.00,,-RA,0.00,VWS V14.01,2013-03-26 10:09:00,
2013-03-26 06:14:00,30.4,23.4,30.06,WNW,292,2.9,2.9,75,0.00,,-RA,0.00,VWS V14.01,2013-03-26 10:14:00,
2013-03-26 06:19:00,30.4,23.7,30.06,WNW,292,4.0,4.0,76,0.00,,-RA,0.00,VWS V14.01,2013-03-26 10:19:00,
2013-03-26 06:24:00,30.6,23.9,30.06,WNW,292,2.5,2.5,76,0.00,,-RA,0.00,VWS V14.01,2013-03-26 10:24:00,
2013-03-26 06:29:00,30.6,23.9,30.06,WNW,292,1.3,1.3,76,0.00,,-RA,0.00,VWS V14.01,2013-03-26 10:29:00,
2013-03-26 06:34:00,30.6,24.2,30.06,NNW,338,3.6,3.6,77,0.00,,-RA,0.00,VWS V14.01,2013-03-26 10:34:00,
2013-03-26 06:39:00,30.7,24.1,30.06,WNW,292,1.1,1.1,76,0.00,,-RA,0.00,VWS V14.01,2013-03-26 10:39:00,
2013-03-26 06:44:00,30.7,24.4,30.06,WNW,292,2.9,2.9,77,0.00,,-RA,0.00,VWS V14.01,2013-03-26 10:44:00,
2013-03-26 06:49:00,30.7,24.1,30.06,WNW,292,2.7,2.7,76,0.00,,-RA,0.00,VWS V14.01,2013-03-26 10:49:00,
2013-03-26 06:54:00,30.7,24.4,30.06,NW,315,2.5,2.5,77,0.00,,-RA,0.00,VWS V14.01,2013-03-26 10:54:00,
2013-03-26 06:59:00,30.7,24.1,30.06,West,270,2.5,2.5,76,0.00,,-RA,0.00,VWS V14.01,2013-03-26 10:59:00,
2013-03-26 07:04:00,30.7,24.4,30.06,NNW,338,2.9,2.9,77,0.00,,-RA,0.00,VWS V14.01,2013-03-26 11:04:00,
2013-03-26 07:09:00,30.7,24.4,30.06,WNW,292,3.8,3.8,77,0.00,,-RA,0.00,VWS V14.01,2013-03-26 11:09:00,
2013-03-26 07:14:00,30.9,24.6,30.06,NNW,338,5.8,5.8,77,0.00,,-RA,0.00,VWS V14.01,2013-03-26 11:14:00,
2013-03-26 07:19:00,30.9,24.6,30.06,West,270,0.0,0.0,77,0.00,,-RA,0.00,VWS V14.01,2013-03-26 11:19:00,
2013-03-26 07:24:00,30.9,24.6,30.06,WNW,292,6.5,6.5,77,0.00,,-RA,0.00,VWS V14.01,2013-03-26 11:24:00,
2013-03-26 07:29:00,30.9,24.9,30.06,WNW,292,3.6,3.6,78,0.00,,-RA,0.00,VWS V14.01,2013-03-26 11:29:00,
2013-03-26 07:34:00,30.9,24.6,30.09,WNW,292,3.6,3.6,77,0.00,,-RA,0.00,VWS V14.01,2013-03-26 11:34:00,
2013-03-26 07:39:00,30.9,24.6,30.09,NNW,338,3.8,3.8,77,0.00,,-RA,0.00,VWS V14.01,2013-03-26 11:39:00,
2013-03-26 07:44:00,30.9,24.6,30.09,NW,315,2.9,2.9,77,0.00,,-RA,0.00,VWS V14.01,2013-03-26 11:44:00,
2013-03-26 07:49:00,30.9,24.6,30.09,West,270,2.9,2.9,77,0.00,,-RA,0.00,VWS V14.01,2013-03-26 11:49:00,
2013-03-26 07:54:00,31.1,24.8,30.09,NW,315,2.5,2.5,77,0.00,,-RA,0.00,VWS V14.01,2013-03-26 11:54:00,
2013-03-26 07:59:00,31.1,24.8,30.09,West,270,0.0,0.0,77,0.00,,-RA,0.00,VWS V14.01,2013-03-26 11:59:00,
2013-03-26 08:04:00,31.1,24.8,30.09,NW,315,2.5,2.5,77,0.00,,-RA,0.00,VWS V14.01,2013-03-26 12:04:00,
2013-03-26 08:09:00,31.1,24.8,30.09,WNW,292,3.8,3.8,77,0.00,,-RA,0.00,VWS V14.01,2013-03-26 12:09:00,
2013-03-26 08:14:00,31.3,24.9,30.09,NW,315,2.7,2.7,77,0.00,,-RA,0.00,VWS V14.01,2013-03-26 12:14:00,
2013-03-26 08:19:00,31.5,25.4,30.09,WNW,292,6.5,6.5,78,0.00,,-RA,0.00,VWS V14.01,2013-03-26 12:19:00,
2013-03-26 08:24:00,31.5,25.4,30.09,WNW,292,3.4,3.4,78,0.00,,-RA,0.00,VWS V14.01,2013-03-26 12:24:00,
2013-03-26 08:29:00,31.6,25.6,30.09,WSW,248,2.9,2.9,78,0.00,,-RA,0.00,VWS V14.01,2013-03-26 12:29:00,
2013-03-26 08:34:00,31.8,25.8,30.09,WNW,292,2.9,2.9,78,0.00,,-RA,0.00,VWS V14.01,2013-03-26 12:34:00,
2013-03-26 08:39:00,32.0,25.9,30.09,WSW,248,3.6,3.6,78,0.00,,-RA,0.00,VWS V14.01,2013-03-26 12:39:00,
2013-03-26 08:44:00,32.0,25.9,30.09,WSW,248,2.7,2.7,78,0.00,,-RA,0.00,VWS V14.01,2013-03-26 12:44:00,
2013-03-26 08:49:00,32.2,26.1,30.09,WNW,292,3.6,3.6,78,0.00,,-RA,0.00,VWS V14.01,2013-03-26 12:49:00,
2013-03-26 08:54:00,32.4,26.0,30.09,WNW,292,4.0,4.0,77,0.00,,-RA,0.00,VWS V14.01,2013-03-26 12:54:00,
2013-03-26 08:59:00,32.4,26.0,30.09,West,270,3.4,3.4,77,0.00,,-RA,0.00,VWS V14.01,2013-03-26 12:59:00,
2013-03-26 09:04:00,32.5,26.1,30.12,West,270,4.0,4.0,77,0.00,,-RA,0.00,VWS V14.01,2013-03-26 13:04:00,
2013-03-26 09:09:00,32.5,26.1,30.12,WNW,292,5.4,5.4,77,0.00,,-RA,0.00,VWS V14.01,2013-03-26 13:09:00,
2013-03-26 09:14:00,32.7,26.3,30.12,NNW,338,0.0,0.0,77,0.00,,-RA,0.00,VWS V14.01,2013-03-26 13:14:00,
2013-03-26 09:19:00,32.9,26.5,30.09,NNW,338,3.8,3.8,77,0.00,,-RA,0.00,VWS V14.01,2013-03-26 13:19:00,
2013-03-26 09:24:00,33.1,26.7,30.09,WNW,292,2.7,2.7,77,0.00,,-RA,0.00,VWS V14.01,2013-03-26 13:24:00,
2013-03-26 09:29:00,33.1,26.4,30.09,WSW,248,3.1,3.1,76,0.00,,-RA,0.00,VWS V14.01,2013-03-26 13:29:00,
2013-03-26 09:34:00,33.3,26.5,30.12,NW,315,1.1,1.1,76,0.00,,-RA,0.00,VWS V14.01,2013-03-26 13:34:00,
2013-03-26 09:39:00,33.6,26.9,30.12,West,270,1.3,1.3,76,0.00,,-RA,0.00,VWS V14.01,2013-03-26 13:39:00,
2013-03-26 09:44:00,33.8,27.0,30.12,WNW,292,7.6,7.6,76,0.00,,-RA,0.00,VWS V14.01,2013-03-26 13:44:00,
2013-03-26 09:49:00,34.0,27.2,30.12,NW,315,3.6,3.6,76,0.00,,-RA,0.00,VWS V14.01,2013-03-26 13:49:00,
2013-03-26 09:54:00,34.0,26.9,30.12,WNW,292,4.3,4.3,75,0.00,,-RA,0.00,VWS V14.01,2013-03-26 13:54:00,
2013-03-26 09:59:00,34.2,27.1,30.12,WNW,292,8.5,8.5,75,0.00,,-RA,0.00,VWS V14.01,2013-03-26 13:59:00,
2013-03-26 10:04:00,34.2,26.8,30.12,WNW,292,3.1,3.1,74,0.00,,-RA,0.00,VWS V14.01,2013-03-26 14:04:00,
2013-03-26 10:09:00,34.3,26.9,30.12,WNW,292,6.0,6.0,74,0.00,,-RA,0.00,VWS V14.01,2013-03-26 14:09:00,
2013-03-26 10:14:00,34.3,26.9,30.12,WNW,292,2.0,2.0,74,0.00,,-RA,0.00,VWS V14.01,2013-03-26 14:14:00,
2013-03-26 10:19:00,34.3,26.9,30.12,WSW,248,4.3,4.3,74,0.00,,-RA,0.00,VWS V14.01,2013-03-26 14:19:00,
2013-03-26 10:24:00,34.7,27.6,30.12,West,270,8.5,8.5,75,0.00,,-RA,0.00,VWS V14.01,2013-03-26 14:24:00,
2013-03-26 10:29:00,34.7,27.3,30.12,NW,315,7.4,7.4,74,0.00,,-RA,0.00,VWS V14.01,2013-03-26 14:29:00,
2013-03-26 10:34:00,35.1,27.6,30.12,NW,315,7.8,7.8,74,0.00,,-RA,0.00,VWS V14.01,2013-03-26 14:34:00,
2013-03-26 10:39:00,35.1,27.3,30.12,NW,315,2.7,2.7,73,0.00,,-RA,0.00,VWS V14.01,2013-03-26 14:39:00,
2013-03-26 10:44:00,35.1,27.3,30.12,WNW,292,5.8,5.8,73,0.00,,-RA,0.00,VWS V14.01,2013-03-26 14:44:00,
2013-03-26 10:49:00,35.2,27.5,30.12,NW,315,2.9,2.9,73,0.00,,-RA,0.00,VWS V14.01,2013-03-26 14:49:00,
2013-03-26 10:54:00,35.4,27.6,30.12,WNW,292,4.9,4.9,73,0.00,,-RA,0.00,VWS V14.01,2013-03-26 14:54:00,
2013-03-26 10:59:00,35.6,27.5,30.12,WNW,292,6.9,6.9,72,0.00,,-RA,0.00,VWS V14.01,2013-03-26 14:59:00,
2013-03-26 11:04:00,35.6,27.5,30.12,WNW,292,2.7,2.7,72,0.00,,-RA,0.00,VWS V14.01,2013-03-26 15:04:00,
2013-03-26 11:09:00,35.6,27.5,30.12,NNW,338,2.9,2.9,72,0.00,,-RA,0.00,VWS V14.01,2013-03-26 15:09:00,
2013-03-26 11:14:00,36.3,28.2,30.12,NW,315,3.6,3.6,72,0.00,,-RA,0.00,VWS V14.01,2013-03-26 15:14:00,
2013-03-26 11:19:00,36.7,27.8,30.12,WNW,292,7.2,7.2,70,0.00,,-RA,0.00,VWS V14.01,2013-03-26 15:19:00,
2013-03-26 11:24:00,36.9,28.0,30.12,WNW,292,4.7,4.7,70,0.00,,-RA,0.00,VWS V14.01,2013-03-26 15:24:00,
2013-03-26 11:29:00,37.4,27.8,30.12,West,270,10.1,10.1,68,0.00,,-RA,0.00,VWS V14.01,2013-03-26 15:29:00,
2013-03-26 11:34:00,37.8,27.8,30.12,NW,315,3.6,3.6,67,0.00,,-RA,0.00,VWS V14.01,2013-03-26 15:34:00,
2013-03-26 11:39:00,37.9,27.2,30.12,WNW,292,7.6,7.6,65,0.00,,-RA,0.00,VWS V14.01,2013-03-26 15:39:00,
2013-03-26 11:44:00,38.1,27.8,30.12,WSW,248,3.1,3.1,66,0.00,,-RA,0.00,VWS V14.01,2013-03-26 15:44:00,
2013-03-26 11:49:00,38.5,27.8,30.12,North,0,3.1,3.1,65,0.00,,-RA,0.00,VWS V14.01,2013-03-26 15:49:00,
2013-03-26 11:54:00,38.5,26.6,30.12,WNW,292,7.8,7.8,62,0.00,,-RA,0.00,VWS V14.01,2013-03-26 15:54:00,
2013-03-26 11:59:00,38.5,27.0,30.12,NNW,338,3.1,3.1,63,0.00,,-RA,0.00,VWS V14.01,2013-03-26 15:59:00,
2013-03-26 12:04:00,38.7,26.8,30.12,NNW,338,3.6,3.6,62,0.00,,-RA,0.00,VWS V14.01,2013-03-26 16:04:00,
2013-03-26 12:09:00,38.8,27.0,30.12,North,0,3.6,3.6,62,0.00,,-RA,0.00,VWS V14.01,2013-03-26 16:09:00,
2013-03-26 12:14:00,39.2,27.3,30.12,WNW,292,3.1,3.1,62,0.00,,-RA,0.00,VWS V14.01,2013-03-26 16:14:00,
2013-03-26 12:19:00,39.2,26.1,30.15,West,270,4.3,4.3,59,0.00,,-RA,0.00,VWS V14.01,2013-03-26 16:19:00,
2013-03-26 12:24:00,39.2,26.1,30.15,NNE,22,8.7,8.7,59,0.00,,-RA,0.00,VWS V14.01,2013-03-26 16:24:00,
2013-03-26 12:29:00,39.2,26.1,30.15,West,270,4.3,4.3,59,0.00,,-RA,0.00,VWS V14.01,2013-03-26 16:29:00,
2013-03-26 12:34:00,39.2,25.3,30.15,WNW,292,3.1,3.1,57,0.00,,-RA,0.00,VWS V14.01,2013-03-26 16:34:00,
2013-03-26 12:39:00,39.4,25.4,30.15,NW,315,6.5,6.5,57,0.00,,-RA,0.00,VWS V14.01,2013-03-26 16:39:00,
2013-03-26 12:44:00,39.7,25.8,30.15,WNW,292,2.2,2.2,57,0.00,,-RA,0.00,VWS V14.01,2013-03-26 16:44:00,
2013-03-26 12:49:00,39.9,25.5,30.12,NW,315,7.4,7.4,56,0.00,,-RA,0.00,VWS V14.01,2013-03-26 16:49:00,
2013-03-26 12:54:00,39.9,25.1,30.12,NNW,338,8.5,8.5,55,0.00,,-RA,0.00,VWS V14.01,2013-03-26 16:54:00,
2013-03-26 12:59:00,40.3,25.4,30.12,WNW,292,4.0,4.0,55,0.00,,-RA,0.00,VWS V14.01,2013-03-26 16:59:00,
2013-03-26 13:04:00,40.5,25.1,30.12,West,270,5.4,5.4,54,0.00,,-RA,0.00,VWS V14.01,2013-03-26 17:04:00,
2013-03-26 13:09:00,40.6,25.3,30.12,North,0,4.3,4.3,54,0.00,,-RA,0.00,VWS V14.01,2013-03-26 17:09:00,
2013-03-26 13:14:00,40.8,24.6,30.12,WNW,292,7.2,7.2,52,0.00,,-RA,0.00,VWS V14.01,2013-03-26 17:14:00,
2013-03-26 13:19:00,41.0,24.7,30.12,North,0,1.3,1.3,52,0.00,,-RA,0.00,VWS V14.01,2013-03-26 17:19:00,
2013-03-26 13:24:00,41.2,24.4,30.12,NNW,338,5.4,5.4,51,0.00,,-RA,0.00,VWS V14.01,2013-03-26 17:24:00,
2013-03-26 13:29:00,41.2,24.9,30.12,WNW,292,4.0,4.0,52,0.00,,-RA,0.00,VWS V14.01,2013-03-26 17:29:00,
2013-03-26 13:34:00,41.0,24.3,30.12,NNE,22,4.7,4.7,51,0.00,,-RA,0.00,VWS V14.01,2013-03-26 17:34:00,
2013-03-26 13:39:00,40.3,24.5,30.12,WNW,292,5.6,5.6,53,0.00,,-RA,0.00,VWS V14.01,2013-03-26 17:39:00,
2013-03-26 13:44:00,39.6,24.3,30.12,NNE,22,2.7,2.7,54,0.00,,-RA,0.00,VWS V14.01,2013-03-26 17:44:00,
2013-03-26 13:49:00,39.4,24.6,30.12,WNW,292,2.9,2.9,55,0.00,,-RA,0.00,VWS V14.01,2013-03-26 17:49:00,
2013-03-26 13:54:00,38.8,24.5,30.12,West,270,5.4,5.4,56,0.00,,-RA,0.00,VWS V14.01,2013-03-26 17:54:00,
2013-03-26 13:59:00,38.7,25.2,30.12,NNW,338,4.7,4.7,58,0.00,,-RA,0.00,VWS V14.01,2013-03-26 17:59:00,
2013-03-26 14:04:00,38.1,25.5,30.12,NW,315,2.9,2.9,60,0.00,,-RA,0.00,VWS V14.01,2013-03-26 18:04:00,
2013-03-26 14:09:00,37.9,25.3,30.12,NNW,338,4.0,4.0,60,0.00,,-RA,0.00,VWS V14.01,2013-03-26 18:09:00,
2013-03-26 14:14:00,37.8,25.9,30.12,SW,225,1.6,1.6,62,0.00,,-RA,0.00,VWS V14.01,2013-03-26 18:14:00,
2013-03-26 14:19:00,37.6,26.1,30.12,WNW,292,2.7,2.7,63,0.00,,-RA,0.00,VWS V14.01,2013-03-26 18:19:00,
2013-03-26 14:24:00,37.6,26.5,30.12,WSW,248,5.4,5.4,64,0.00,,-RA,0.00,VWS V14.01,2013-03-26 18:24:00,
2013-03-26 14:29:00,37.8,26.7,30.12,WNW,292,4.9,4.9,64,0.00,,-RA,0.00,VWS V14.01,2013-03-26 18:29:00,
2013-03-26 14:34:00,37.9,26.9,30.12,WNW,292,4.0,4.0,64,0.00,,-RA,0.00,VWS V14.01,2013-03-26 18:34:00,
2013-03-26 14:39:00,38.3,26.8,30.12,NW,315,4.0,4.0,63,0.00,,-RA,0.00,VWS V14.01,2013-03-26 18:39:00,
2013-03-26 14:44:00,38.5,27.0,30.12,WNW,292,5.4,5.4,63,0.00,,-RA,0.00,VWS V14.01,2013-03-26 18:44:00,
2013-03-26 14:49:00,38.7,26.8,30.12,WNW,292,6.0,6.0,62,0.00,,-RA,0.00,VWS V14.01,2013-03-26 18:49:00,
2013-03-26 14:54:00,38.7,27.2,30.12,WNW,292,10.3,10.3,63,0.00,,-RA,0.00,VWS V14.01,2013-03-26 18:54:00,
2013-03-26 14:59:00,38.7,27.2,30.12,WSW,248,6.7,6.7,63,0.00,,-RA,0.00,VWS V14.01,2013-03-26 18:59:00,
2013-03-26 15:04:00,38.7,27.2,30.12,NW,315,6.7,6.7,63,0.00,,-RA,0.00,VWS V14.01,2013-03-26 19:04:00,
2013-03-26 15:09:00,38.7,26.4,30.12,NW,315,3.1,3.1,61,0.00,,-RA,0.00,VWS V14.01,2013-03-26 19:09:00,
2013-03-26 15:14:00,38.7,26.8,30.12,WNW,292,6.3,6.3,62,0.00,,-RA,0.00,VWS V14.01,2013-03-26 19:14:00,
2013-03-26 15:19:00,38.5,27.0,30.12,WNW,292,5.6,5.6,63,0.00,,-RA,0.00,VWS V14.01,2013-03-26 19:19:00,
2013-03-26 15:24:00,38.5,27.8,30.12,NW,315,8.7,8.7,65,0.00,,-RA,0.00,VWS V14.01,2013-03-26 19:24:00,
2013-03-26 15:29:00,38.7,28.3,30.12,NW,315,3.4,3.4,66,0.00,,-RA,0.00,VWS V14.01,2013-03-26 19:29:00,
2013-03-26 15:34:00,38.8,29.2,30.12,WNW,292,5.8,5.8,68,0.00,,-RA,0.00,VWS V14.01,2013-03-26 19:34:00,
2013-03-26 15:39:00,39.6,29.5,30.12,WNW,292,4.7,4.7,67,0.00,,-RA,0.00,VWS V14.01,2013-03-26 19:39:00,
2013-03-26 15:44:00,40.3,29.5,30.12,West,270,8.5,8.5,65,0.00,,-RA,0.00,VWS V14.01,2013-03-26 19:44:00,
2013-03-26 15:49:00,40.8,30.0,30.12,WSW,248,10.3,10.3,65,0.00,,-RA,0.00,VWS V14.01,2013-03-26 19:49:00,
2013-03-26 15:54:00,40.5,28.5,30.12,WNW,292,10.1,10.1,62,0.00,,-RA,0.00,VWS V14.01,2013-03-26 19:54:00,
2013-03-26 15:59:00,39.9,26.8,30.12,West,270,2.9,2.9,59,0.00,,-RA,0.00,VWS V14.01,2013-03-26 19:59:00,
2013-03-26 16:04:00,39.4,26.3,30.12,WNW,292,6.0,6.0,59,0.00,,-RA,0.00,VWS V14.01,2013-03-26 20:04:00,
2013-03-26 16:09:00,38.8,26.2,30.12,WSW,248,4.9,4.9,60,0.00,,-RA,0.00,VWS V14.01,2013-03-26 20:09:00,
2013-03-26 16:14:00,38.1,26.3,30.12,NW,315,7.4,7.4,62,0.00,,-RA,0.00,VWS V14.01,2013-03-26 20:14:00,
2013-03-26 16:19:00,37.4,26.4,30.12,WNW,292,3.4,3.4,64,0.00,,-RA,0.00,VWS V14.01,2013-03-26 20:19:00,
2013-03-26 16:24:00,37.0,26.8,30.12,West,270,1.3,1.3,66,0.00,,-RA,0.00,VWS V14.01,2013-03-26 20:24:00,
2013-03-26 16:29:00,37.2,26.9,30.12,NNW,338,4.7,4.7,66,0.00,,-RA,0.00,VWS V14.01,2013-03-26 20:29:00,
2013-03-26 16:34:00,37.4,27.1,30.12,WNW,292,4.7,4.7,66,0.00,,-RA,0.00,VWS V14.01,2013-03-26 20:34:00,
2013-03-26 16:39:00,37.6,27.3,30.12,North,0,2.2,2.2,66,0.00,,-RA,0.00,VWS V14.01,2013-03-26 20:39:00,
2013-03-26 16:44:00,38.5,28.1,30.12,NW,315,2.9,2.9,66,0.00,,-RA,0.00,VWS V14.01,2013-03-26 20:44:00,
2013-03-26 16:49:00,39.0,28.6,30.12,WSW,248,8.7,8.7,66,0.00,,-RA,0.00,VWS V14.01,2013-03-26 20:49:00,
2013-03-26 16:54:00,38.8,27.3,30.12,WNW,292,5.4,5.4,63,0.00,,-RA,0.00,VWS V14.01,2013-03-26 20:54:00,
2013-03-26 16:59:00,37.6,28.7,30.12,WNW,292,10.1,10.1,70,0.00,,-RA,0.00,VWS V14.01,2013-03-26 20:59:00,
2013-03-26 17:04:00,35.6,27.5,30.15,West,270,1.3,1.3,72,0.00,,-RA,0.00,VWS V14.01,2013-03-26 21:04:00,
2013-03-26 17:09:00,34.9,27.1,30.15,WNW,292,3.1,3.1,73,0.00,,-RA,0.00,VWS V14.01,2013-03-26 21:09:00,
2013-03-26 17:14:00,34.7,27.6,30.15,WNW,292,2.9,2.9,75,0.00,,-RA,0.00,VWS V14.01,2013-03-26 21:14:00,
2013-03-26 17:19:00,34.7,27.9,30.12,North,0,0.9,0.9,76,0.00,,-RA,0.00,VWS V14.01,2013-03-26 21:19:00,
2013-03-26 17:24:00,34.5,27.8,30.12,West,270,2.7,2.7,76,0.00,,-RA,0.00,VWS V14.01,2013-03-26 21:24:00,
2013-03-26 17:29:00,34.5,28.7,30.12,WNW,292,2.7,2.7,79,0.00,,-RA,0.00,VWS V14.01,2013-03-26 21:29:00,
2013-03-26 17:34:00,34.5,29.0,30.15,WNW,292,2.7,2.7,80,0.00,,-RA,0.00,VWS V14.01,2013-03-26 21:34:00,
2013-03-26 17:39:00,34.3,29.1,30.15,NNW,338,1.3,1.3,81,0.00,,-RA,0.00,VWS V14.01,2013-03-26 21:39:00,
2013-03-26 17:44:00,34.0,29.1,30.15,WNW,292,3.6,3.6,82,0.00,,-RA,0.00,VWS V14.01,2013-03-26 21:44:00,
2013-03-26 17:49:00,34.2,29.2,30.15,WSW,248,2.5,2.5,82,0.00,,-RA,0.00,VWS V14.01,2013-03-26 21:49:00,
2013-03-26 17:54:00,34.3,29.7,30.15,WNW,292,4.7,4.7,83,0.00,,-RA,0.00,VWS V14.01,2013-03-26 21:54:00,
2013-03-26 17:59:00,34.5,29.9,30.15,West,270,3.8,3.8,83,0.00,,-RA,0.00,VWS V14.01,2013-03-26 21:59:00,
2013-03-26 18:04:00,34.9,30.5,30.12,WNW,292,1.6,1.6,84,0.00,,-RA,0.00,VWS V14.01,2013-03-26 22:04:00,
2013-03-26 18:09:00,35.2,31.2,30.12,WSW,248,0.0,0.0,85,0.04,,-RA,0.04,VWS V14.01,2013-03-26 22:09:00,
2013-03-26 18:14:00,35.4,31.4,30.12,West,270,3.1,3.1,85,0.04,,-RA,0.04,VWS V14.01,2013-03-26 22:14:00,
2013-03-26 18:19:00,35.4,31.4,30.15,WSW,248,0.0,0.0,85,0.04,,-RA,0.04,VWS V14.01,2013-03-26 22:19:00,
2013-03-26 18:24:00,35.4,31.1,30.15,WSW,248,2.9,2.9,84,0.04,,-RA,0.04,VWS V14.01,2013-03-26 22:24:00,
2013-03-26 18:29:00,35.2,30.9,30.15,WSW,248,0.0,0.0,84,0.04,,-RA,0.04,VWS V14.01,2013-03-26 22:29:00,
2013-03-26 18:34:00,35.2,30.9,30.15,WNW,292,0.0,0.0,84,0.04,,-RA,0.04,VWS V14.01,2013-03-26 22:34:00,
2013-03-26 18:39:00,35.1,30.7,30.15,WSW,248,0.0,0.0,84,0.04,,-RA,0.04,VWS V14.01,2013-03-26 22:39:00,
2013-03-26 18:44:00,35.1,30.7,30.15,WNW,292,1.3,1.3,84,0.04,,-RA,0.04,VWS V14.01,2013-03-26 22:44:00,
2013-03-26 18:49:00,35.1,30.7,30.15,NW,315,2.7,2.7,84,0.04,,-RA,0.04,VWS V14.01,2013-03-26 22:49:00,
2013-03-26 18:54:00,35.1,30.7,30.15,NW,315,3.4,3.4,84,0.04,,-RA,0.04,VWS V14.01,2013-03-26 22:54:00,
2013-03-26 18:59:00,34.9,30.8,30.15,WNW,292,3.4,3.4,85,0.04,,-RA,0.04,VWS V14.01,2013-03-26 22:59:00,
2013-03-26 19:04:00,34.5,30.5,30.15,NW,315,0.0,0.0,85,0.04,,-RA,0.04,VWS V14.01,2013-03-26 23:04:00,
2013-03-26 19:09:00,34.5,30.5,30.15,West,270,0.0,0.0,85,0.00,,-RA,0.04,VWS V14.01,2013-03-26 23:09:00,
2013-03-26 19:14:00,34.5,30.5,30.15,NW,315,0.0,0.0,85,0.00,,-RA,0.04,VWS V14.01,2013-03-26 23:14:00,
2013-03-26 19:19:00,34.5,30.5,30.15,WNW,292,1.3,1.3,85,0.00,,-RA,0.04,VWS V14.01,2013-03-26 23:19:00,
2013-03-26 19:24:00,34.7,31.0,30.15,WNW,292,2.7,2.7,86,0.00,,-RA,0.04,VWS V14.01,2013-03-26 23:24:00,
2013-03-26 19:29:00,34.7,31.2,30.15,NNW,338,1.1,1.1,87,0.00,,-RA,0.04,VWS V14.01,2013-03-26 23:29:00,
2013-03-26 19:34:00,34.5,31.1,30.15,WNW,292,0.9,0.9,87,0.00,,-RA,0.04,VWS V14.01,2013-03-26 23:34:00,
2013-03-26 19:39:00,34.5,31.1,30.15,West,270,3.4,3.4,87,0.00,,-RA,0.04,VWS V14.01,2013-03-26 23:39:00,
2013-03-26 19:44:00,34.5,30.8,30.15,West,270,0.0,0.0,86,0.00,,-RA,0.04,VWS V14.01,2013-03-26 23:44:00,
2013-03-26 19:49:00,34.5,30.8,30.18,NNW,338,0.0,0.0,86,0.00,,-RA,0.04,VWS V14.01,2013-03-26 23:49:00,
2013-03-26 19:54:00,34.5,30.8,30.18,WSW,248,0.0,0.0,86,0.00,,-RA,0.04,VWS V14.01,2013-03-26 23:54:00,
2013-03-26 19:59:00,34.3,30.6,30.18,WNW,292,0.0,0.0,86,0.00,,-RA,0.04,VWS V14.01,2013-03-26 23:59:00,
2013-03-26 20:04:00,34.3,30.6,30.15,NNW,338,2.7,2.7,86,0.00,,-RA,0.04,VWS V14.01,2013-03-27 00:04:00,
2013-03-26 20:09:00,34.3,30.6,30.15,WNW,292,1.6,1.6,86,0.00,,-RA,0.04,VWS V14.01,2013-03-27 00:09:00,
2013-03-26 20:14:00,34.3,30.6,30.15,WNW,292,0.0,0.0,86,0.00,,-RA,0.04,VWS V14.01,2013-03-27 00:14:00,
2013-03-26 20:19:00,34.2,30.4,30.15,NW,315,2.9,2.9,86,0.00,,-RA,0.04,VWS V14.01,2013-03-27 00:19:00,
2013-03-26 20:24:00,34.3,30.6,30.15,NNW,338,2.9,2.9,86,0.00,,-RA,0.04,VWS V14.01,2013-03-27 00:24:00,
2013-03-26 20:29:00,34.2,30.4,30.15,WNW,292,2.5,2.5,86,0.00,,-RA,0.04,VWS V14.01,2013-03-27 00:29:00,
2013-03-26 20:34:00,34.3,30.6,30.18,West,270,5.4,5.4,86,0.00,,-RA,0.04,VWS V14.01,2013-03-27 00:34:00,
2013-03-26 20:39:00,34.2,30.4,30.18,WNW,292,3.1,3.1,86,0.00,,-RA,0.04,VWS V14.01,2013-03-27 00:39:00,
2013-03-26 20:44:00,34.2,30.4,30.18,WNW,292,1.1,1.1,86,0.00,,-RA,0.04,VWS V14.01,2013-03-27 00:44:00,
2013-03-26 20:49:00,34.3,30.6,30.18,NW,315,3.4,3.4,86,0.00,,-RA,0.04,VWS V14.01,2013-03-27 00:49:00,
2013-03-26 20:54:00,34.3,30.9,30.18,NW,315,1.1,1.1,87,0.00,,-RA,0.04,VWS V14.01,2013-03-27 00:54:00,
2013-03-26 20:59:00,34.5,31.1,30.18,WNW,292,3.8,3.8,87,0.00,,-RA,0.04,VWS V14.01,2013-03-27 00:59:00,
2013-03-26 21:04:00,34.5,31.1,30.18,WNW,292,6.0,6.0,87,0.00,,-RA,0.04,VWS V14.01,2013-03-27 01:04:00,
2013-03-26 21:09:00,34.7,31.0,30.18,WNW,292,2.7,2.7,86,0.00,,-RA,0.04,VWS V14.01,2013-03-27 01:09:00,
2013-03-26 21:14:00,34.7,30.7,30.18,NW,315,2.9,2.9,85,0.00,,-RA,0.04,VWS V14.01,2013-03-27 01:14:00,
2013-03-26 21:19:00,34.7,30.7,30.18,NW,315,3.6,3.6,85,0.00,,-RA,0.04,VWS V14.01,2013-03-27 01:19:00,
2013-03-26 21:24:00,34.7,30.4,30.18,NNW,338,2.7,2.7,84,0.00,,-RA,0.04,VWS V14.01,2013-03-27 01:24:00,
2013-03-26 21:29:00,34.7,30.1,30.18,WNW,292,2.7,2.7,83,0.00,,-RA,0.04,VWS V14.01,2013-03-27 01:29:00,
2013-03-26 21:34:00,34.7,29.5,30.18,WNW,292,2.5,2.5,81,0.00,,-RA,0.04,VWS V14.01,2013-03-27 01:34:00,
2013-03-26 21:39:00,34.7,29.2,30.18,NW,315,5.8,5.8,80,0.00,,-RA,0.04,VWS V14.01,2013-03-27 01:39:00,
2013-03-26 21:44:00,34.7,28.9,30.18,WNW,292,2.0,2.0,79,0.00,,-RA,0.00,VWS V14.01,2013-03-27 01:44:00,
2013-03-26 21:49:00,34.7,28.9,30.18,North,0,3.1,3.1,79,0.00,,-RA,0.04,VWS V14.01,2013-03-27 01:49:00,
2013-03-26 21:54:00,34.7,28.9,30.18,NNW,338,4.7,4.7,79,0.00,,-RA,0.04,VWS V14.01,2013-03-27 01:54:00,
2013-03-26 21:59:00,34.5,28.4,30.18,WNW,292,3.8,3.8,78,0.00,,-RA,0.04,VWS V14.01,2013-03-27 01:59:00,
2013-03-26 22:04:00,34.5,28.4,30.21,NW,315,1.3,1.3,78,0.00,,-RA,0.04,VWS V14.01,2013-03-27 02:04:00,
2013-03-26 22:09:00,34.5,28.1,30.21,WNW,292,4.3,4.3,77,0.00,,-RA,0.04,VWS V14.01,2013-03-27 02:09:00,
2013-03-26 22:14:00,34.5,28.1,30.21,NNW,338,7.6,7.6,77,0.00,,-RA,0.04,VWS V14.01,2013-03-27 02:14:00,
2013-03-26 22:19:00,34.5,27.8,30.21,WNW,292,5.8,5.8,76,0.00,,-RA,0.04,VWS V14.01,2013-03-27 02:19:00,
2013-03-26 22:24:00,34.5,27.8,30.21,WNW,292,6.3,6.3,76,0.00,,-RA,0.04,VWS V14.01,2013-03-27 02:24:00,
2013-03-26 22:29:00,34.5,27.8,30.21,West,270,4.0,4.0,76,0.00,,-RA,0.04,VWS V14.01,2013-03-27 02:29:00,
2013-03-26 22:34:00,34.5,27.8,30.21,West,270,2.7,2.7,76,0.00,,-RA,0.04,VWS V14.01,2013-03-27 02:34:00,
2013-03-26 22:39:00,34.5,27.8,30.21,WNW,292,4.9,4.9,76,0.00,,-RA,0.04,VWS V14.01,2013-03-27 02:39:00,
2013-03-26 22:44:00,34.5,27.4,30.21,WNW,292,4.0,4.0,75,0.00,,-RA,0.04,VWS V14.01,2013-03-27 02:44:00,
2013-03-26 22:49:00,34.3,27.2,30.21,WSW,248,3.4,3.4,75,0.00,,-RA,0.04,VWS V14.01,2013-03-27 02:49:00,
2013-03-26 22:54:00,34.3,27.2,30.21,WNW,292,1.3,1.3,75,0.00,,-RA,0.04,VWS V14.01,2013-03-27 02:54:00,
2013-03-26 22:59:00,34.3,27.2,30.21,WNW,292,2.7,2.7,75,0.00,,-RA,0.04,VWS V14.01,2013-03-27 02:59:00,
2013-03-26 23:04:00,34.3,27.2,30.21,WNW,292,5.4,5.4,75,0.00,,-RA,0.04,VWS V14.01,2013-03-27 03:04:00,
2013-03-26 23:09:00,34.3,27.2,30.21,NW,315,2.5,2.5,75,0.00,,-RA,0.04,VWS V14.01,2013-03-27 03:09:00,
2013-03-26 23:14:00,34.3,27.2,30.21,WNW,292,4.3,4.3,75,0.00,,-RA,0.04,VWS V14.01,2013-03-27 03:14:00,
2013-03-26 23:19:00,34.3,27.6,30.21,NNW,338,3.8,3.8,76,0.00,,-RA,0.04,VWS V14.01,2013-03-27 03:19:00,
2013-03-26 23:24:00,34.2,27.1,30.21,NW,315,2.2,2.2,75,0.00,,-RA,0.04,VWS V14.01,2013-03-27 03:24:00,
2013-03-26 23:29:00,34.2,27.4,30.21,North,0,1.6,1.6,76,0.00,,-RA,0.04,VWS V14.01,2013-03-27 03:29:00,
2013-03-26 23:34:00,34.2,27.4,30.21,NNW,338,2.5,2.5,76,0.00,,-RA,0.04,VWS V14.01,2013-03-27 03:34:00,
2013-03-26 23:39:00,34.2,27.4,30.21,WNW,292,5.4,5.4,76,0.00,,-RA,0.04,VWS V14.01,2013-03-27 03:39:00,
2013-03-26 23:44:00,34.2,27.4,30.21,NNW,338,4.0,4.0,76,0.00,,-RA,0.04,VWS V14.01,2013-03-27 03:44:00,
2013-03-26 23:49:00,34.2,27.4,30.21,WNW,292,2.7,2.7,76,0.00,,-RA,0.04,VWS V14.01,2013-03-27 03:49:00,
2013-03-26 23:54:00,34.2,27.4,30.21,WSW,248,2.9,2.9,76,0.00,,-RA,0.04,VWS V14.01,2013-03-27 03:54:00,
2013-03-26 23:59:00,34.2,27.4,30.21,NNW,338,4.3,4.3,76,0.00,,-RA,0.04,VWS V14.01,2013-03-27 03:59:00,